sensor_id;sensor_type;location;lat;lon;timestamp;temperature;humidity
12847;DHT22;6492;48.128;8.320;2023-03-01T00:02:32;-7.20;59.50
12847;DHT22;6492;48.128;8.320;2023-03-01T00:06:33;-7.20;59.80
12847;DHT22;6492;48.128;8.320;2023-03-01T00:10:35;-7.20;60.10
12847;DHT22;6492;48.128;8.320;2023-03-01T00:14:38;-7.30;60.20
12847;DHT22;6492;48.128;8.320;2023-03-01T00:18:43;-7.30;60.40
12847;DHT22;6492;48.128;8.320;2023-03-01T00:22:45;-7.30;60.60
12847;DHT22;6492;48.128;8.320;2023-03-01T00:26:47;-7.30;61.20
12847;DHT22;6492;48.128;8.320;2023-03-01T00:30:50;-7.40;60.60
12847;DHT22;6492;48.128;8.320;2023-03-01T00:34:52;-7.40;60.60
12847;DHT22;6492;48.128;8.320;2023-03-01T00:38:56;-7.40;60.90
12847;DHT22;6492;48.128;8.320;2023-03-01T00:42:58;-7.40;60.90
12847;DHT22;6492;48.128;8.320;2023-03-01T00:47:01;-7.50;61.00
12847;DHT22;6492;48.128;8.320;2023-03-01T00:51:08;-7.40;61.30
12847;DHT22;6492;48.128;8.320;2023-03-01T00:55:10;-7.40;61.70
12847;DHT22;6492;48.128;8.320;2023-03-01T00:59:13;-7.40;61.80
12847;DHT22;6492;48.128;8.320;2023-03-01T01:03:16;-7.50;61.80
12847;DHT22;6492;48.128;8.320;2023-03-01T01:07:18;-7.50;61.80
12847;DHT22;6492;48.128;8.320;2023-03-01T01:11:21;-7.50;61.70
12847;DHT22;6492;48.128;8.320;2023-03-01T01:15:23;-7.60;62.50
12847;DHT22;6492;48.128;8.320;2023-03-01T01:19:28;-7.50;62.10
12847;DHT22;6492;48.128;8.320;2023-03-01T01:23:32;-7.50;62.30
12847;DHT22;6492;48.128;8.320;2023-03-01T01:27:34;-7.50;62.80
12847;DHT22;6492;48.128;8.320;2023-03-01T01:31:37;-7.40;63.60
12847;DHT22;6492;48.128;8.320;2023-03-01T01:35:40;-7.20;64.40
12847;DHT22;6492;48.128;8.320;2023-03-01T01:39:42;-7.00;64.90
12847;DHT22;6492;48.128;8.320;2023-03-01T01:43:46;-6.80;65.30
12847;DHT22;6492;48.128;8.320;2023-03-01T01:47:48;-6.70;65.70
12847;DHT22;6492;48.128;8.320;2023-03-01T01:51:57;-6.60;66.00
12847;DHT22;6492;48.128;8.320;2023-03-01T01:56:01;-6.40;66.20
12847;DHT22;6492;48.128;8.320;2023-03-01T02:00:07;-6.30;66.40
12847;DHT22;6492;48.128;8.320;2023-03-01T02:04:10;-6.30;66.20
12847;DHT22;6492;48.128;8.320;2023-03-01T02:08:14;-6.20;66.00
12847;DHT22;6492;48.128;8.320;2023-03-01T02:12:19;-6.20;65.90
12847;DHT22;6492;48.128;8.320;2023-03-01T02:16:21;-6.20;65.70
12847;DHT22;6492;48.128;8.320;2023-03-01T02:20:28;-6.20;65.60
12847;DHT22;6492;48.128;8.320;2023-03-01T02:24:40;-6.10;65.60
12847;DHT22;6492;48.128;8.320;2023-03-01T02:28:44;-6.10;65.60
12847;DHT22;6492;48.128;8.320;2023-03-01T02:32:47;-6.00;65.60
12847;DHT22;6492;48.128;8.320;2023-03-01T02:36:52;-5.90;65.70
12847;DHT22;6492;48.128;8.320;2023-03-01T02:40:57;-5.80;65.60
12847;DHT22;6492;48.128;8.320;2023-03-01T02:45:00;-5.70;65.70
12847;DHT22;6492;48.128;8.320;2023-03-01T02:49:02;-5.60;65.50
12847;DHT22;6492;48.128;8.320;2023-03-01T02:53:08;-5.60;65.30
12847;DHT22;6492;48.128;8.320;2023-03-01T02:57:12;-5.50;65.10
12847;DHT22;6492;48.128;8.320;2023-03-01T03:01:16;-5.40;64.70
12847;DHT22;6492;48.128;8.320;2023-03-01T03:05:19;-5.40;64.50
12847;DHT22;6492;48.128;8.320;2023-03-01T03:09:21;-5.30;64.40
12847;DHT22;6492;48.128;8.320;2023-03-01T03:13:23;-5.20;64.00
12847;DHT22;6492;48.128;8.320;2023-03-01T03:17:30;-5.10;63.60
12847;DHT22;6492;48.128;8.320;2023-03-01T03:21:34;-5.00;63.20
12847;DHT22;6492;48.128;8.320;2023-03-01T03:25:36;-4.90;62.80
12847;DHT22;6492;48.128;8.320;2023-03-01T03:29:38;-4.90;62.20
12847;DHT22;6492;48.128;8.320;2023-03-01T03:33:42;-4.80;61.50
12847;DHT22;6492;48.128;8.320;2023-03-01T03:37:44;-4.70;60.50
12847;DHT22;6492;48.128;8.320;2023-03-01T03:42:03;-4.70;59.60
12847;DHT22;6492;48.128;8.320;2023-03-01T03:46:06;-4.60;58.90
12847;DHT22;6492;48.128;8.320;2023-03-01T03:50:11;-4.60;58.30
12847;DHT22;6492;48.128;8.320;2023-03-01T03:54:13;-4.60;57.60
12847;DHT22;6492;48.128;8.320;2023-03-01T03:58:16;-4.60;57.30
12847;DHT22;6492;48.128;8.320;2023-03-01T04:02:20;-4.60;56.80
12847;DHT22;6492;48.128;8.320;2023-03-01T04:06:24;-4.60;56.10
12847;DHT22;6492;48.128;8.320;2023-03-01T04:10:27;-4.60;55.60
12847;DHT22;6492;48.128;8.320;2023-03-01T04:14:29;-4.60;55.40
12847;DHT22;6492;48.128;8.320;2023-03-01T04:18:31;-4.60;55.00
12847;DHT22;6492;48.128;8.320;2023-03-01T04:22:34;-4.60;54.70
12847;DHT22;6492;48.128;8.320;2023-03-01T04:26:36;-4.70;54.70
12847;DHT22;6492;48.128;8.320;2023-03-01T04:30:38;-4.70;54.90
12847;DHT22;6492;48.128;8.320;2023-03-01T04:34:41;-4.60;54.90
12847;DHT22;6492;48.128;8.320;2023-03-01T04:38:45;-4.60;55.00
12847;DHT22;6492;48.128;8.320;2023-03-01T04:42:48;-4.60;54.90
12847;DHT22;6492;48.128;8.320;2023-03-01T04:46:50;-4.60;54.90
12847;DHT22;6492;48.128;8.320;2023-03-01T04:50:52;-4.60;54.90
12847;DHT22;6492;48.128;8.320;2023-03-01T04:54:55;-4.60;55.00
12847;DHT22;6492;48.128;8.320;2023-03-01T04:58:57;-4.60;55.10
12847;DHT22;6492;48.128;8.320;2023-03-01T05:03:03;-4.60;55.30
12847;DHT22;6492;48.128;8.320;2023-03-01T05:07:04;-4.30;55.50
12847;DHT22;6492;48.128;8.320;2023-03-01T05:11:08;-4.50;55.00
12847;DHT22;6492;48.128;8.320;2023-03-01T05:19:20;-4.50;55.10
12847;DHT22;6492;48.128;8.320;2023-03-01T05:23:23;-4.60;55.00
12847;DHT22;6492;48.128;8.320;2023-03-01T05:27:26;-4.50;54.80
12847;DHT22;6492;48.128;8.320;2023-03-01T05:31:28;-4.50;54.80
12847;DHT22;6492;48.128;8.320;2023-03-01T05:35:32;-4.50;54.70
12847;DHT22;6492;48.128;8.320;2023-03-01T05:39:34;-4.50;54.70
12847;DHT22;6492;48.128;8.320;2023-03-01T05:43:39;-4.50;54.60
12847;DHT22;6492;48.128;8.320;2023-03-01T05:47:45;-4.50;54.60
12847;DHT22;6492;48.128;8.320;2023-03-01T05:51:48;-4.60;54.60
12847;DHT22;6492;48.128;8.320;2023-03-01T05:55:52;-4.50;54.70
12847;DHT22;6492;48.128;8.320;2023-03-01T05:59:56;-4.60;54.60
12847;DHT22;6492;48.128;8.320;2023-03-01T06:03:57;-4.50;54.60
12847;DHT22;6492;48.128;8.320;2023-03-01T06:07:59;-4.60;54.60
12847;DHT22;6492;48.128;8.320;2023-03-01T06:12:01;-4.50;54.70
12847;DHT22;6492;48.128;8.320;2023-03-01T06:16:06;-4.60;54.90
12847;DHT22;6492;48.128;8.320;2023-03-01T06:20:10;-4.50;55.00
12847;DHT22;6492;48.128;8.320;2023-03-01T06:24:12;-4.50;55.10
12847;DHT22;6492;48.128;8.320;2023-03-01T06:28:14;-4.50;54.90
12847;DHT22;6492;48.128;8.320;2023-03-01T06:32:25;-4.50;54.90
12847;DHT22;6492;48.128;8.320;2023-03-01T06:36:27;-4.50;54.80
12847;DHT22;6492;48.128;8.320;2023-03-01T06:40:29;-4.50;54.70
12847;DHT22;6492;48.128;8.320;2023-03-01T06:44:31;-4.40;54.60
12847;DHT22;6492;48.128;8.320;2023-03-01T06:48:34;-4.40;54.50
12847;DHT22;6492;48.128;8.320;2023-03-01T06:52:36;-4.40;54.20
12847;DHT22;6492;48.128;8.320;2023-03-01T06:56:38;-4.40;54.00
12847;DHT22;6492;48.128;8.320;2023-03-01T07:00:40;-4.40;53.90
12847;DHT22;6492;48.128;8.320;2023-03-01T07:04:58;-4.30;54.10
12847;DHT22;6492;48.128;8.320;2023-03-01T07:09:00;-4.30;54.10
12847;DHT22;6492;48.128;8.320;2023-03-01T07:13:02;-4.20;53.90
12847;DHT22;6492;48.128;8.320;2023-03-01T07:17:04;-4.20;53.40
12847;DHT22;6492;48.128;8.320;2023-03-01T07:21:09;-4.20;53.00
12847;DHT22;6492;48.128;8.320;2023-03-01T07:25:12;-4.20;52.50
12847;DHT22;6492;48.128;8.320;2023-03-01T07:29:14;-4.10;52.80
12847;DHT22;6492;48.128;8.320;2023-03-01T07:33:16;-4.00;52.60
12847;DHT22;6492;48.128;8.320;2023-03-01T07:37:19;-4.00;52.00
12847;DHT22;6492;48.128;8.320;2023-03-01T07:41:21;-3.90;52.10
12847;DHT22;6492;48.128;8.320;2023-03-01T07:45:23;-3.90;52.40
12847;DHT22;6492;48.128;8.320;2023-03-01T07:49:25;-3.80;50.80
12847;DHT22;6492;48.128;8.320;2023-03-01T07:53:29;-3.80;50.50
12847;DHT22;6492;48.128;8.320;2023-03-01T07:57:32;-3.70;50.70
12847;DHT22;6492;48.128;8.320;2023-03-01T08:01:34;-3.70;50.40
12847;DHT22;6492;48.128;8.320;2023-03-01T08:05:35;-3.60;49.50
12847;DHT22;6492;48.128;8.320;2023-03-01T08:09:38;-3.50;48.80
12847;DHT22;6492;48.128;8.320;2023-03-01T08:13:41;-3.40;48.20
12847;DHT22;6492;48.128;8.320;2023-03-01T08:17:43;-3.30;47.80
12847;DHT22;6492;48.128;8.320;2023-03-01T08:21:44;-3.20;47.10
12847;DHT22;6492;48.128;8.320;2023-03-01T08:25:47;-3.10;46.20
12847;DHT22;6492;48.128;8.320;2023-03-01T08:29:49;-3.00;45.70
12847;DHT22;6492;48.128;8.320;2023-03-01T08:33:53;-2.90;44.70
12847;DHT22;6492;48.128;8.320;2023-03-01T08:37:56;-2.80;43.90
12847;DHT22;6492;48.128;8.320;2023-03-01T08:41:59;-2.70;43.20
12847;DHT22;6492;48.128;8.320;2023-03-01T08:46:01;-2.60;42.50
12847;DHT22;6492;48.128;8.320;2023-03-01T08:50:04;-2.50;41.10
12847;DHT22;6492;48.128;8.320;2023-03-01T08:54:06;-2.40;40.30
12847;DHT22;6492;48.128;8.320;2023-03-01T08:58:10;-2.30;40.20
12847;DHT22;6492;48.128;8.320;2023-03-01T09:02:18;-2.20;38.50
12847;DHT22;6492;48.128;8.320;2023-03-01T09:06:21;-2.10;38.10
12847;DHT22;6492;48.128;8.320;2023-03-01T09:10:23;-2.00;37.80
12847;DHT22;6492;48.128;8.320;2023-03-01T09:14:26;-1.90;37.10
12847;DHT22;6492;48.128;8.320;2023-03-01T09:18:28;-1.80;36.90
12847;DHT22;6492;48.128;8.320;2023-03-01T09:22:30;-1.60;35.60
12847;DHT22;6492;48.128;8.320;2023-03-01T09:26:32;-1.50;35.20
12847;DHT22;6492;48.128;8.320;2023-03-01T09:30:35;-1.40;34.00
12847;DHT22;6492;48.128;8.320;2023-03-01T09:34:37;-1.40;33.80
12847;DHT22;6492;48.128;8.320;2023-03-01T09:38:53;-1.30;33.20
12847;DHT22;6492;48.128;8.320;2023-03-01T09:42:59;-1.20;32.00
12847;DHT22;6492;48.128;8.320;2023-03-01T09:47:05;-1.10;32.60
12847;DHT22;6492;48.128;8.320;2023-03-01T09:51:17;-1.10;32.10
12847;DHT22;6492;48.128;8.320;2023-03-01T09:55:25;-0.90;31.90
12847;DHT22;6492;48.128;8.320;2023-03-01T09:59:37;-0.70;32.00
12847;DHT22;6492;48.128;8.320;2023-03-01T10:03:45;-0.40;30.80
12847;DHT22;6492;48.128;8.320;2023-03-01T10:07:57;-0.30;29.00
12847;DHT22;6492;48.128;8.320;2023-03-01T10:12:08;-0.20;28.30
12847;DHT22;6492;48.128;8.320;2023-03-01T10:16:13;0.10;28.50
12847;DHT22;6492;48.128;8.320;2023-03-01T10:20:21;0.30;27.40
12847;DHT22;6492;48.128;8.320;2023-03-01T10:24:23;0.40;26.30
12847;DHT22;6492;48.128;8.320;2023-03-01T10:28:28;0.50;25.90
12847;DHT22;6492;48.128;8.320;2023-03-01T10:32:32;0.60;25.40
12847;DHT22;6492;48.128;8.320;2023-03-01T10:36:36;0.80;25.30
12847;DHT22;6492;48.128;8.320;2023-03-01T10:40:53;0.90;23.80
12847;DHT22;6492;48.128;8.320;2023-03-01T10:44:55;1.10;23.10
12847;DHT22;6492;48.128;8.320;2023-03-01T10:49:07;1.20;23.00
12847;DHT22;6492;48.128;8.320;2023-03-01T10:53:27;1.40;23.30
12847;DHT22;6492;48.128;8.320;2023-03-01T10:57:35;1.60;21.10
12847;DHT22;6492;48.128;8.320;2023-03-01T11:01:38;1.60;20.70
12847;DHT22;6492;48.128;8.320;2023-03-01T11:06:04;1.90;21.00
12847;DHT22;6492;48.128;8.320;2023-03-01T11:10:17;2.10;20.10
12847;DHT22;6492;48.128;8.320;2023-03-01T11:14:22;2.30;19.80
12847;DHT22;6492;48.128;8.320;2023-03-01T11:18:31;2.40;18.20
12847;DHT22;6492;48.128;8.320;2023-03-01T11:22:34;2.40;17.90
12847;DHT22;6492;48.128;8.320;2023-03-01T11:26:41;2.30;16.90
12847;DHT22;6492;48.128;8.320;2023-03-01T11:30:48;2.50;19.00
12847;DHT22;6492;48.128;8.320;2023-03-01T11:34:56;2.60;17.00
12847;DHT22;6492;48.128;8.320;2023-03-01T11:39:03;2.50;16.90
12847;DHT22;6492;48.128;8.320;2023-03-01T11:43:14;2.60;17.00
12847;DHT22;6492;48.128;8.320;2023-03-01T11:47:29;2.70;16.90
12847;DHT22;6492;48.128;8.320;2023-03-01T11:51:42;2.40;16.70
12847;DHT22;6492;48.128;8.320;2023-03-01T11:56:08;2.50;16.80
12847;DHT22;6492;48.128;8.320;2023-03-01T12:00:22;2.50;15.20
12847;DHT22;6492;48.128;8.320;2023-03-01T12:04:44;2.70;15.90
12847;DHT22;6492;48.128;8.320;2023-03-01T12:08:58;2.90;15.90
12847;DHT22;6492;48.128;8.320;2023-03-01T12:13:23;3.10;15.00
12847;DHT22;6492;48.128;8.320;2023-03-01T12:17:56;3.10;15.00
12847;DHT22;6492;48.128;8.320;2023-03-01T12:22:20;3.40;15.80
12847;DHT22;6492;48.128;8.320;2023-03-01T12:26:30;3.80;13.90
12847;DHT22;6492;48.128;8.320;2023-03-01T12:30:52;3.80;12.00
12847;DHT22;6492;48.128;8.320;2023-03-01T12:35:16;3.50;12.90
12847;DHT22;6492;48.128;8.320;2023-03-01T12:39:34;3.70;13.80
12847;DHT22;6492;48.128;8.320;2023-03-01T12:43:47;4.40;12.50
12847;DHT22;6492;48.128;8.320;2023-03-01T12:48:02;5.20;10.40
12847;DHT22;6492;48.128;8.320;2023-03-01T12:52:13;5.80;8.70
12847;DHT22;6492;48.128;8.320;2023-03-01T12:56:19;6.30;6.80
12847;DHT22;6492;48.128;8.320;2023-03-01T13:00:28;6.40;6.40
12847;DHT22;6492;48.128;8.320;2023-03-01T13:04:40;6.30;6.10
12847;DHT22;6492;48.128;8.320;2023-03-01T13:08:52;6.20;6.40
12847;DHT22;6492;48.128;8.320;2023-03-01T13:13:08;5.70;5.90
12847;DHT22;6492;48.128;8.320;2023-03-01T13:17:31;5.20;7.20
12847;DHT22;6492;48.128;8.320;2023-03-01T13:21:32;5.10;7.30
12847;DHT22;6492;48.128;8.320;2023-03-01T13:30:42;5.30;8.20
12847;DHT22;6492;48.128;8.320;2023-03-01T13:34:49;5.60;7.80
12847;DHT22;6492;48.128;8.320;2023-03-01T13:38:56;5.90;6.90
12847;DHT22;6492;48.128;8.320;2023-03-01T13:43:25;6.10;7.80
12847;DHT22;6492;48.128;8.320;2023-03-01T13:47:29;6.30;6.00
12847;DHT22;6492;48.128;8.320;2023-03-01T13:51:30;6.50;6.70
12847;DHT22;6492;48.128;8.320;2023-03-01T13:55:37;6.70;6.40
12847;DHT22;6492;48.128;8.320;2023-03-01T13:59:48;7.10;5.10
12847;DHT22;6492;48.128;8.320;2023-03-01T14:03:50;7.40;4.70
12847;DHT22;6492;48.128;8.320;2023-03-01T14:07:51;7.90;4.30
12847;DHT22;6492;48.128;8.320;2023-03-01T14:12:05;8.00;2.60
12847;DHT22;6492;48.128;8.320;2023-03-01T14:16:22;7.80;1.60
12847;DHT22;6492;48.128;8.320;2023-03-01T14:20:28;7.60;2.20
12847;DHT22;6492;48.128;8.320;2023-03-01T14:24:31;7.60;2.60
12847;DHT22;6492;48.128;8.320;2023-03-01T14:28:36;7.90;1.00
12847;DHT22;6492;48.128;8.320;2023-03-01T14:32:40;8.10;1.20
12847;DHT22;6492;48.128;8.320;2023-03-01T14:36:42;7.80;2.90
12847;DHT22;6492;48.128;8.320;2023-03-01T14:40:44;7.50;2.00
12847;DHT22;6492;48.128;8.320;2023-03-01T14:44:49;7.00;2.90
12847;DHT22;6492;48.128;8.320;2023-03-01T14:48:55;6.70;4.10
12847;DHT22;6492;48.128;8.320;2023-03-01T14:53:01;6.70;4.90
12847;DHT22;6492;48.128;8.320;2023-03-01T14:57:03;6.60;3.10
12847;DHT22;6492;48.128;8.320;2023-03-01T15:01:05;6.60;4.10
12847;DHT22;6492;48.128;8.320;2023-03-01T15:05:10;6.70;4.40
12847;DHT22;6492;48.128;8.320;2023-03-01T15:09:14;6.70;4.50
12847;DHT22;6492;48.128;8.320;2023-03-01T15:13:23;6.60;4.20
12847;DHT22;6492;48.128;8.320;2023-03-01T15:17:30;6.40;3.60
12847;DHT22;6492;48.128;8.320;2023-03-01T15:21:34;6.40;4.20
12847;DHT22;6492;48.128;8.320;2023-03-01T15:25:36;6.50;4.30
12847;DHT22;6492;48.128;8.320;2023-03-01T15:29:39;6.40;3.00
12847;DHT22;6492;48.128;8.320;2023-03-01T15:33:41;6.30;4.10
12847;DHT22;6492;48.128;8.320;2023-03-01T15:37:49;6.10;3.80
12847;DHT22;6492;48.128;8.320;2023-03-01T15:41:51;5.80;3.70
12847;DHT22;6492;48.128;8.320;2023-03-01T15:45:56;5.70;5.10
12847;DHT22;6492;48.128;8.320;2023-03-01T15:50:00;5.70;5.80
12847;DHT22;6492;48.128;8.320;2023-03-01T15:54:08;5.60;5.50
12847;DHT22;6492;48.128;8.320;2023-03-01T15:58:18;5.40;6.20
12847;DHT22;6492;48.128;8.320;2023-03-01T16:02:21;5.30;6.40
12847;DHT22;6492;48.128;8.320;2023-03-01T16:06:30;5.20;5.90
12847;DHT22;6492;48.128;8.320;2023-03-01T16:10:35;4.80;6.40
12847;DHT22;6492;48.128;8.320;2023-03-01T16:14:37;4.30;7.50
12847;DHT22;6492;48.128;8.320;2023-03-01T16:18:46;4.00;8.40
12847;DHT22;6492;48.128;8.320;2023-03-01T16:22:48;3.70;9.50
12847;DHT22;6492;48.128;8.320;2023-03-01T16:26:51;3.40;10.50
12847;DHT22;6492;48.128;8.320;2023-03-01T16:30:52;3.00;11.30
12847;DHT22;6492;48.128;8.320;2023-03-01T16:34:54;2.70;12.50
12847;DHT22;6492;48.128;8.320;2023-03-01T16:38:59;2.40;13.30
12847;DHT22;6492;48.128;8.320;2023-03-01T16:43:04;2.10;14.50
12847;DHT22;6492;48.128;8.320;2023-03-01T16:47:41;1.80;15.60
12847;DHT22;6492;48.128;8.320;2023-03-01T16:52:01;1.60;16.50
12847;DHT22;6492;48.128;8.320;2023-03-01T16:56:05;1.50;17.70
12847;DHT22;6492;48.128;8.320;2023-03-01T17:00:11;1.40;18.30
12847;DHT22;6492;48.128;8.320;2023-03-01T17:04:15;1.30;18.80
12847;DHT22;6492;48.128;8.320;2023-03-01T17:08:17;1.10;19.00
12847;DHT22;6492;48.128;8.320;2023-03-01T17:12:26;0.80;20.10
12847;DHT22;6492;48.128;8.320;2023-03-01T17:16:36;0.50;21.30
12847;DHT22;6492;48.128;8.320;2023-03-01T17:20:39;0.30;23.00
12847;DHT22;6492;48.128;8.320;2023-03-01T17:24:54;0.00;23.80
12847;DHT22;6492;48.128;8.320;2023-03-01T17:28:58;-0.10;24.80
12847;DHT22;6492;48.128;8.320;2023-03-01T17:33:05;-0.30;25.50
12847;DHT22;6492;48.128;8.320;2023-03-01T17:37:08;-0.20;26.50
12847;DHT22;6492;48.128;8.320;2023-03-01T17:41:13;-0.30;26.90
12847;DHT22;6492;48.128;8.320;2023-03-01T17:45:17;-0.30;27.30
12847;DHT22;6492;48.128;8.320;2023-03-01T17:49:21;-0.40;27.80
12847;DHT22;6492;48.128;8.320;2023-03-01T17:53:22;-0.40;28.90
12847;DHT22;6492;48.128;8.320;2023-03-01T17:57:37;-0.40;29.20
12847;DHT22;6492;48.128;8.320;2023-03-01T18:01:40;-0.40;28.80
12847;DHT22;6492;48.128;8.320;2023-03-01T18:05:50;-0.40;28.50
12847;DHT22;6492;48.128;8.320;2023-03-01T18:09:55;-0.50;28.60
12847;DHT22;6492;48.128;8.320;2023-03-01T18:13:56;-0.60;29.00
12847;DHT22;6492;48.128;8.320;2023-03-01T18:17:58;-0.70;29.70
12847;DHT22;6492;48.128;8.320;2023-03-01T18:22:02;-0.70;30.00
12847;DHT22;6492;48.128;8.320;2023-03-01T18:26:05;-0.70;30.60
12847;DHT22;6492;48.128;8.320;2023-03-01T18:30:08;-0.60;30.90
12847;DHT22;6492;48.128;8.320;2023-03-01T18:34:11;-0.50;30.70
12847;DHT22;6492;48.128;8.320;2023-03-01T18:38:14;-0.40;30.50
12847;DHT22;6492;48.128;8.320;2023-03-01T18:42:17;-0.40;30.00
12847;DHT22;6492;48.128;8.320;2023-03-01T18:46:20;-0.30;29.80
12847;DHT22;6492;48.128;8.320;2023-03-01T18:50:22;-0.30;29.60
12847;DHT22;6492;48.128;8.320;2023-03-01T18:54:25;-0.30;29.70
12847;DHT22;6492;48.128;8.320;2023-03-01T18:58:29;-0.30;29.30
12847;DHT22;6492;48.128;8.320;2023-03-01T19:02:30;-0.30;29.50
12847;DHT22;6492;48.128;8.320;2023-03-01T19:06:33;-0.30;29.40
12847;DHT22;6492;48.128;8.320;2023-03-01T19:10:36;-0.30;29.30
12847;DHT22;6492;48.128;8.320;2023-03-01T19:14:39;-0.30;29.30
12847;DHT22;6492;48.128;8.320;2023-03-01T19:18:42;-0.30;29.30
12847;DHT22;6492;48.128;8.320;2023-03-01T19:22:49;-0.30;29.50
12847;DHT22;6492;48.128;8.320;2023-03-01T19:26:54;-0.30;29.40
12847;DHT22;6492;48.128;8.320;2023-03-01T19:31:00;-0.40;29.90
12847;DHT22;6492;48.128;8.320;2023-03-01T19:35:03;-0.40;29.80
12847;DHT22;6492;48.128;8.320;2023-03-01T19:39:05;-0.30;29.90
12847;DHT22;6492;48.128;8.320;2023-03-01T19:43:10;-0.40;29.80
12847;DHT22;6492;48.128;8.320;2023-03-01T19:47:23;-0.40;29.70
12847;DHT22;6492;48.128;8.320;2023-03-01T19:51:24;-0.30;29.90
12847;DHT22;6492;48.128;8.320;2023-03-01T19:55:26;-0.30;29.90
12847;DHT22;6492;48.128;8.320;2023-03-01T19:59:29;-0.40;29.90
12847;DHT22;6492;48.128;8.320;2023-03-01T20:03:33;-0.40;30.10
12847;DHT22;6492;48.128;8.320;2023-03-01T20:07:35;-0.40;30.00
12847;DHT22;6492;48.128;8.320;2023-03-01T20:11:37;-0.40;30.10
12847;DHT22;6492;48.128;8.320;2023-03-01T20:15:41;-0.40;30.30
12847;DHT22;6492;48.128;8.320;2023-03-01T20:19:43;-0.40;30.40
12847;DHT22;6492;48.128;8.320;2023-03-01T20:23:45;-0.40;30.50
12847;DHT22;6492;48.128;8.320;2023-03-01T20:27:47;-0.40;30.60
12847;DHT22;6492;48.128;8.320;2023-03-01T20:31:52;-0.40;30.70
12847;DHT22;6492;48.128;8.320;2023-03-01T20:35:54;-0.30;30.70
12847;DHT22;6492;48.128;8.320;2023-03-01T20:39:56;-0.30;30.70
12847;DHT22;6492;48.128;8.320;2023-03-01T20:43:58;-0.30;30.60
12847;DHT22;6492;48.128;8.320;2023-03-01T20:48:02;-0.30;30.50
12847;DHT22;6492;48.128;8.320;2023-03-01T20:52:04;-0.30;30.50
12847;DHT22;6492;48.128;8.320;2023-03-01T20:56:09;-0.30;30.30
12847;DHT22;6492;48.128;8.320;2023-03-01T21:00:12;-0.30;30.90
12847;DHT22;6492;48.128;8.320;2023-03-01T21:04:15;-0.30;30.50
12847;DHT22;6492;48.128;8.320;2023-03-01T21:08:27;-0.30;30.40
12847;DHT22;6492;48.128;8.320;2023-03-01T21:12:30;-0.20;30.10
12847;DHT22;6492;48.128;8.320;2023-03-01T21:16:37;-0.30;30.10
12847;DHT22;6492;48.128;8.320;2023-03-01T21:21:06;-0.20;30.00
12847;DHT22;6492;48.128;8.320;2023-03-01T21:25:16;-0.30;29.90
12847;DHT22;6492;48.128;8.320;2023-03-01T21:29:18;-0.30;29.80
12847;DHT22;6492;48.128;8.320;2023-03-01T21:33:20;-0.20;29.80
12847;DHT22;6492;48.128;8.320;2023-03-01T21:37:23;-0.20;29.80
12847;DHT22;6492;48.128;8.320;2023-03-01T21:41:28;-0.20;29.60
12847;DHT22;6492;48.128;8.320;2023-03-01T21:45:30;-0.20;29.30
12847;DHT22;6492;48.128;8.320;2023-03-01T21:49:32;-0.20;29.10
12847;DHT22;6492;48.128;8.320;2023-03-01T21:53:35;-0.20;28.60
12847;DHT22;6492;48.128;8.320;2023-03-01T21:57:37;-0.30;28.20
12847;DHT22;6492;48.128;8.320;2023-03-01T22:01:43;-0.30;27.60
12847;DHT22;6492;48.128;8.320;2023-03-01T22:05:53;-0.30;27.70
12847;DHT22;6492;48.128;8.320;2023-03-01T22:09:56;-0.30;27.50
12847;DHT22;6492;48.128;8.320;2023-03-01T22:13:58;-0.30;27.30
12847;DHT22;6492;48.128;8.320;2023-03-01T22:18:00;-0.30;27.30
12847;DHT22;6492;48.128;8.320;2023-03-01T22:22:02;-0.30;27.30
12847;DHT22;6492;48.128;8.320;2023-03-01T22:26:06;-0.40;28.00
12847;DHT22;6492;48.128;8.320;2023-03-01T22:34:37;-0.40;27.90
12847;DHT22;6492;48.128;8.320;2023-03-01T22:38:39;-0.40;27.80
12847;DHT22;6492;48.128;8.320;2023-03-01T22:42:42;-0.50;28.10
12847;DHT22;6492;48.128;8.320;2023-03-01T22:46:45;-0.40;28.20
12847;DHT22;6492;48.128;8.320;2023-03-01T22:50:48;-0.50;28.50
12847;DHT22;6492;48.128;8.320;2023-03-01T22:54:52;-0.50;28.80
12847;DHT22;6492;48.128;8.320;2023-03-01T22:58:56;-0.50;28.90
12847;DHT22;6492;48.128;8.320;2023-03-01T23:02:58;-0.50;29.10
12847;DHT22;6492;48.128;8.320;2023-03-01T23:06:59;-0.50;29.30
12847;DHT22;6492;48.128;8.320;2023-03-01T23:11:01;-0.50;29.60
12847;DHT22;6492;48.128;8.320;2023-03-01T23:15:06;-0.60;29.70
12847;DHT22;6492;48.128;8.320;2023-03-01T23:19:08;-0.60;29.80
12847;DHT22;6492;48.128;8.320;2023-03-01T23:23:10;-0.60;29.90
12847;DHT22;6492;48.128;8.320;2023-03-01T23:27:12;-0.60;30.10
12847;DHT22;6492;48.128;8.320;2023-03-01T23:31:16;-0.60;30.20
12847;DHT22;6492;48.128;8.320;2023-03-01T23:35:18;-0.60;30.50
12847;DHT22;6492;48.128;8.320;2023-03-01T23:39:20;-0.70;30.90
12847;DHT22;6492;48.128;8.320;2023-03-01T23:43:22;-0.70;31.20
12847;DHT22;6492;48.128;8.320;2023-03-01T23:47:25;-0.70;31.50
12847;DHT22;6492;48.128;8.320;2023-03-01T23:51:27;-0.70;31.70
12847;DHT22;6492;48.128;8.320;2023-03-01T23:55:29;-0.70;32.20
12847;DHT22;6492;48.128;8.320;2023-03-01T23:59:31;-0.70;32.30
